createdAt,value
2023-05-04T07:36:27.767Z,101736.59
2023-05-04T07:38:54.483Z,101738.63
2023-05-04T07:41:21.012Z,101733.09
2023-05-04T07:43:47.587Z,101727.09
2023-05-04T07:46:14.185Z,101727.47
2023-05-04T07:48:40.771Z,101721.09
2023-05-04T07:51:14.102Z,101727.81
2023-05-04T07:53:41.038Z,101719.00
2023-05-04T07:56:12.427Z,101722.53
2023-05-04T07:58:39.482Z,101712.94
2023-05-04T08:01:05.953Z,101720.41
2023-05-04T08:03:32.480Z,101715.53
2023-05-04T08:05:58.982Z,101710.22
2023-05-04T08:08:25.585Z,101710.13
2023-05-04T08:10:52.616Z,101710.03
2023-05-04T08:13:19.266Z,101708.72
2023-05-04T08:15:45.774Z,101704.22
2023-05-04T08:18:12.201Z,101709.25
2023-05-04T08:20:38.725Z,101698.34
2023-05-04T08:23:05.245Z,101698.94
2023-05-04T08:25:31.790Z,101697.97
2023-05-04T08:27:58.266Z,101696.22
2023-05-04T08:30:24.960Z,101693.66
2023-05-04T08:32:52.983Z,101694.31
2023-05-04T08:35:19.596Z,101696.25
2023-05-04T08:37:47.624Z,101690.19
2023-05-04T08:40:14.953Z,101687.56
2023-05-04T08:42:44.239Z,101686.97
2023-05-04T08:45:11.028Z,101691.19
2023-05-04T08:47:37.729Z,101678.28
2023-05-04T08:50:04.554Z,101671.34
2023-05-04T08:52:31.171Z,101675.63
2023-05-04T08:54:58.432Z,101678.53
2023-05-04T08:57:26.070Z,101671.13
2023-05-04T08:59:54.509Z,101670.84
2023-05-04T09:02:22.614Z,101659.50
2023-05-04T09:04:53.440Z,101675.28
2023-05-04T09:07:21.281Z,101663.84
2023-05-04T09:09:50.868Z,101662.13
2023-05-04T09:12:18.162Z,101666.56
2023-05-04T09:14:46.319Z,101662.28
2023-05-04T09:17:25.172Z,101665.91
2023-05-04T09:20:04.026Z,101662.78
2023-05-04T09:22:31.098Z,101659.81
2023-05-04T09:25:08.155Z,101650.78
2023-05-04T09:27:34.688Z,101650.00
2023-05-04T09:30:01.167Z,101650.97
2023-05-04T09:32:28.486Z,101653.59
2023-05-04T09:34:55.046Z,101639.22
2023-05-04T09:37:22.390Z,101633.22
2023-05-04T09:39:56.298Z,101641.28
2023-05-04T09:42:24.053Z,101627.72
2023-05-04T09:45:05.548Z,101628.22
2023-05-04T09:47:36.862Z,101629.75
2023-05-04T09:50:12.607Z,101621.81
2023-05-04T09:52:40.440Z,101625.97
2023-05-04T09:55:10.995Z,101618.56
2023-05-04T09:57:38.001Z,101612.63
2023-05-04T10:00:04.997Z,101614.41
2023-05-04T10:02:32.250Z,101610.59
2023-05-04T10:05:00.684Z,101609.78
2023-05-04T10:07:31.804Z,101609.03
2023-05-04T10:10:01.239Z,101608.44
2023-05-04T10:12:27.771Z,101597.25
2023-05-04T10:14:54.317Z,101582.25
2023-05-04T10:17:42.239Z,101581.31
2023-05-04T10:20:46.573Z,101575.97
2023-05-04T10:23:31.759Z,101578.13
2023-05-04T10:26:13.459Z,101579.50
2023-05-04T10:28:39.822Z,101563.94
2023-05-04T10:31:07.452Z,101561.50
2023-05-04T10:33:41.581Z,101561.09
2023-05-04T10:36:09.335Z,101556.84
2023-05-04T10:38:37.487Z,101563.84
2023-05-04T10:41:14.377Z,101549.44
2023-05-04T10:43:42.414Z,101542.63
2023-05-04T10:46:18.687Z,101541.41
2023-05-04T10:48:45.281Z,101536.47
2023-05-04T10:51:19.839Z,101532.69
2023-05-04T10:53:47.486Z,101521.09
2023-05-04T10:56:40.245Z,101520.31
2023-05-04T10:59:10.350Z,101515.81
2023-05-04T11:01:47.364Z,101511.09
2023-05-04T11:04:21.517Z,101513.63
2023-05-04T11:07:08.375Z,101502.91
2023-05-04T11:09:39.721Z,101504.81
2023-05-04T11:12:07.395Z,101501.31
2023-05-04T11:14:37.843Z,101487.16
2023-05-04T11:17:27.481Z,101491.66
2023-05-04T11:19:55.190Z,101487.72
2023-05-04T11:22:21.932Z,101490.56
2023-05-04T11:24:51.356Z,101489.75
2023-05-04T11:27:26.096Z,101492.22
2023-05-04T11:30:00.159Z,101491.41
2023-05-04T11:32:36.373Z,101489.13
2023-05-04T11:35:04.899Z,101478.31
2023-05-04T11:37:38.884Z,101474.53
2023-05-04T11:40:14.156Z,101474.06
2023-05-04T11:42:42.735Z,101456.06
2023-05-04T11:45:24.835Z,101450.91
2023-05-04T11:47:52.370Z,101450.91
2023-05-04T11:50:20.900Z,101432.13
2023-05-04T11:52:48.509Z,101435.66
2023-05-04T11:55:27.889Z,101430.56
2023-05-04T11:58:01.453Z,101429.13
2023-05-04T12:00:44.370Z,101429.28
2023-05-04T12:03:16.096Z,101419.78
2023-05-04T12:05:54.314Z,101422.75
2023-05-04T12:08:30.417Z,101421.03
2023-05-04T12:11:16.763Z,101409.84
2023-05-04T12:13:45.752Z,101397.09
2023-05-04T12:16:14.125Z,101401.00
2023-05-04T12:18:41.546Z,101404.22
2023-05-04T12:21:18.955Z,101403.63
2023-05-04T12:23:46.922Z,101406.03
2023-05-04T12:26:14.713Z,101392.34
2023-05-04T12:28:42.714Z,101389.75
2023-05-04T12:31:10.152Z,101385.75
2023-05-04T12:33:36.768Z,101375.84
2023-05-04T12:36:05.885Z,101375.75
2023-05-04T12:38:32.611Z,101374.06
2023-05-04T12:41:02.205Z,101370.19
2023-05-04T12:43:28.997Z,101367.38
2023-05-04T12:45:55.571Z,101368.31
2023-05-04T12:48:22.104Z,101366.94
2023-05-04T12:50:51.715Z,101365.78
2023-05-04T12:53:18.506Z,101354.78
2023-05-04T12:55:45.212Z,101354.75
2023-05-04T12:58:11.704Z,101346.09
2023-05-04T13:00:38.848Z,101331.28
2023-05-04T13:03:05.882Z,101328.59
2023-05-04T13:05:32.513Z,101324.50
2023-05-04T13:07:59.373Z,101321.13
2023-05-04T13:10:25.865Z,101317.25
2023-05-04T13:12:52.544Z,101319.31
2023-05-04T13:15:19.195Z,101304.72
2023-05-04T13:17:45.703Z,101299.00
2023-05-04T13:20:13.102Z,101293.81
2023-05-04T13:22:40.585Z,101297.88
2023-05-04T13:25:07.713Z,101294.16
2023-05-04T13:27:34.675Z,101275.28
2023-05-04T13:30:02.985Z,101286.88
2023-05-04T13:32:30.884Z,101285.28
2023-05-04T13:34:57.838Z,101273.66
2023-05-04T13:37:24.384Z,101272.25
2023-05-04T13:39:50.926Z,101264.97
2023-05-04T13:42:17.966Z,101258.94
2023-05-04T13:44:45.488Z,101249.16
2023-05-04T13:47:16.077Z,101249.47
2023-05-04T13:49:42.680Z,101253.03
2023-05-04T13:52:09.685Z,101254.38
2023-05-04T13:54:37.230Z,101252.22
2023-05-04T13:57:03.821Z,101243.97
2023-05-04T13:59:30.396Z,101237.63
2023-05-04T14:01:57.002Z,101230.34
2023-05-04T14:04:23.862Z,101231.34
2023-05-04T14:06:51.630Z,101222.81
2023-05-04T14:09:19.272Z,101222.66
2023-05-04T14:11:46.692Z,101210.28
2023-05-04T14:14:13.295Z,101213.22
2023-05-04T14:16:39.965Z,101213.94
2023-05-04T14:19:06.454Z,101211.81
2023-05-04T14:21:32.950Z,101207.19
2023-05-04T14:23:59.414Z,101208.53
2023-05-04T14:26:26.040Z,101203.38
2023-05-04T14:28:52.500Z,101197.41
2023-05-04T14:31:19.030Z,101192.09
2023-05-04T14:33:45.532Z,101197.47
2023-05-04T14:36:12.197Z,101191.88
2023-05-04T14:38:38.699Z,101185.13
2023-05-04T14:41:05.893Z,101189.31
2023-05-04T14:43:32.564Z,101188.31
2023-05-04T14:45:59.532Z,101176.06
2023-05-04T14:48:27.549Z,101181.00
2023-05-04T14:50:54.911Z,101171.44
2023-05-04T14:53:22.124Z,101163.41
2023-05-04T14:55:49.324Z,101151.19
2023-05-04T14:58:17.199Z,101156.41
2023-05-04T15:00:46.970Z,101145.56
2023-05-04T15:03:13.648Z,101140.91
2023-05-04T15:05:40.265Z,101141.19
2023-05-04T15:08:06.812Z,101132.69
2023-05-04T15:10:33.982Z,101129.78
2023-05-04T15:13:01.570Z,101136.00
2023-05-04T15:15:28.131Z,101124.59
2023-05-04T15:17:54.820Z,101121.47
2023-05-04T15:20:22.304Z,101129.94
2023-05-04T15:22:54.009Z,101129.63
2023-05-04T15:25:23.716Z,101121.06
2023-05-04T15:27:50.450Z,101112.53
2023-05-04T15:30:17.312Z,101114.06
2023-05-04T15:32:43.815Z,101110.56
2023-05-04T15:35:10.402Z,101115.06
2023-05-04T15:37:36.900Z,101128.22
2023-05-04T15:40:04.542Z,101106.38
2023-05-04T15:42:31.391Z,101107.84
2023-05-04T15:44:57.947Z,101119.91
2023-05-04T15:47:24.565Z,101111.00
2023-05-04T15:49:52.411Z,101099.28
2023-05-04T15:52:18.968Z,101102.94
2023-05-04T15:54:47.246Z,101094.38
2023-05-04T15:57:14.978Z,101093.53
2023-05-04T15:59:41.597Z,101101.28
2023-05-04T16:02:08.157Z,101099.38
2023-05-04T16:04:34.611Z,101100.84
2023-05-04T16:07:01.206Z,101094.31
2023-05-04T16:09:29.997Z,101098.69
2023-05-04T16:11:56.663Z,101088.84
2023-05-04T16:14:23.410Z,101088.06
2023-05-04T16:16:50.007Z,101090.38
2023-05-04T16:19:18.015Z,101088.06
2023-05-04T16:21:44.597Z,101082.91
2023-05-04T16:24:12.933Z,101088.50
2023-05-04T16:26:40.357Z,101088.56
2023-05-04T16:29:06.869Z,101089.41
2023-05-04T16:31:33.477Z,101076.00
2023-05-04T16:34:00.131Z,101085.63
2023-05-04T16:36:26.676Z,101086.91
2023-05-04T16:38:53.136Z,101077.00
2023-05-04T16:41:19.873Z,101084.75
2023-05-04T16:43:47.318Z,101081.28
2023-05-04T16:46:13.952Z,101077.16
2023-05-04T16:48:40.533Z,101074.09
2023-05-04T16:51:08.256Z,101074.03
2023-05-04T16:53:35.570Z,101076.31
2023-05-04T16:56:02.206Z,101074.94
2023-05-04T16:58:28.924Z,101070.56
2023-05-04T17:00:55.696Z,101068.09
2023-05-04T17:03:22.761Z,101054.31
2023-05-04T17:05:49.411Z,101059.81
2023-05-04T17:08:17.364Z,101060.94
2023-05-04T17:10:43.844Z,101060.53
2023-05-04T17:13:10.341Z,101054.03
2023-05-04T17:15:36.826Z,101047.59
2023-05-04T17:18:03.380Z,101050.34
2023-05-04T17:20:31.792Z,101057.38
2023-05-04T17:23:01.074Z,101055.03
2023-05-04T17:25:27.664Z,101060.63
2023-05-04T17:27:54.651Z,101061.47
2023-05-04T17:30:21.156Z,101056.22
2023-05-04T17:32:48.757Z,101067.94
2023-05-04T17:35:24.008Z,101058.66
2023-05-04T17:37:55.133Z,101065.50
2023-05-04T17:40:23.610Z,101056.41
2023-05-04T17:42:50.082Z,101068.31
2023-05-04T17:45:16.606Z,101065.38
2023-05-04T17:47:44.934Z,101057.91
2023-05-04T17:50:11.684Z,101067.56
2023-05-04T17:52:38.200Z,101065.59
2023-05-04T17:55:05.215Z,101071.91
2023-05-04T17:57:31.697Z,101066.81
2023-05-04T17:59:58.211Z,101062.28
2023-05-04T18:02:24.726Z,101052.16
2023-05-04T18:04:51.408Z,101054.75
2023-05-04T18:07:17.915Z,101065.13
2023-05-04T18:09:44.534Z,101065.00
2023-05-04T18:12:10.983Z,101079.97
2023-05-04T18:14:37.411Z,101069.94
2023-05-04T18:17:03.927Z,101070.09
2023-05-04T18:19:34.222Z,101079.22
2023-05-04T18:22:00.946Z,101078.19
2023-05-04T18:24:27.395Z,101071.63
2023-05-04T18:26:54.053Z,101082.59
2023-05-04T18:29:20.508Z,101082.78
2023-05-04T18:31:47.140Z,101088.59
2023-05-04T18:34:13.717Z,101090.50
2023-05-04T18:36:40.984Z,101088.34
2023-05-04T18:39:08.268Z,101087.88
2023-05-04T18:41:35.090Z,101089.59
2023-05-04T18:44:01.584Z,101096.03
2023-05-04T18:46:28.212Z,101095.91
2023-05-04T18:48:56.076Z,101098.59
2023-05-04T18:51:22.506Z,101088.88
2023-05-04T18:53:50.082Z,101085.00
2023-05-04T18:56:16.643Z,101090.97
2023-05-04T18:58:43.094Z,101087.19
2023-05-04T19:01:09.663Z,101087.53
2023-05-04T19:03:36.706Z,101090.66
2023-05-04T19:06:06.414Z,101097.84
2023-05-04T19:08:33.600Z,101090.13
2023-05-04T19:11:00.174Z,101087.00
2023-05-04T19:13:26.751Z,101092.63
2023-05-04T19:15:53.290Z,101093.09
2023-05-04T19:18:19.996Z,101098.41
2023-05-04T19:20:46.638Z,101087.41
2023-05-04T19:23:13.125Z,101096.44
2023-05-04T19:25:40.058Z,101098.25
2023-05-04T19:28:09.774Z,101096.66
2023-05-04T19:30:37.109Z,101098.31
2023-05-04T19:33:05.443Z,101089.06
2023-05-04T19:35:32.232Z,101095.91
2023-05-04T19:37:59.273Z,101099.44
2023-05-04T19:40:25.763Z,101098.28
2023-05-04T19:42:52.222Z,101095.81
2023-05-04T19:45:18.750Z,101087.16
2023-05-04T19:47:45.505Z,101090.34
2023-05-04T19:50:13.937Z,101091.97
2023-05-04T19:52:40.751Z,101087.75
2023-05-04T19:55:08.909Z,101091.72
2023-05-04T19:57:36.175Z,101088.38
2023-05-04T20:00:03.418Z,101107.19
2023-05-04T20:02:30.216Z,101098.16
2023-05-04T20:04:56.900Z,101103.56
2023-05-04T20:07:24.471Z,101096.94
2023-05-04T20:09:50.989Z,101090.16
2023-05-04T20:12:17.551Z,101090.69
2023-05-04T20:14:44.024Z,101094.97
2023-05-04T20:17:10.514Z,101086.88
2023-05-04T20:19:38.752Z,101091.63
2023-05-04T20:22:05.289Z,101093.84
2023-05-04T20:24:31.726Z,101094.97
2023-05-04T20:26:58.189Z,101088.53
2023-05-04T20:29:24.646Z,101085.94
2023-05-04T20:31:51.332Z,101090.88
2023-05-04T20:34:19.004Z,101081.09
2023-05-04T20:36:46.958Z,101083.13
2023-05-04T20:39:13.795Z,101094.19
2023-05-04T20:41:40.997Z,101082.41
2023-05-04T20:44:07.529Z,101081.03
2023-05-04T20:46:34.275Z,101086.84
2023-05-04T20:49:02.808Z,101082.66
2023-05-04T20:51:29.548Z,101082.50
2023-05-04T20:53:55.999Z,101079.03
2023-05-04T20:56:22.534Z,101076.34
2023-05-04T20:58:48.984Z,101076.41
2023-05-04T21:01:15.592Z,101075.34
2023-05-04T21:03:42.191Z,101076.34
2023-05-04T21:06:08.732Z,101075.41
2023-05-04T21:08:35.149Z,101061.91
2023-05-04T21:11:01.752Z,101060.88
2023-05-04T21:13:28.361Z,101066.84
2023-05-04T21:15:54.860Z,101061.88
2023-05-04T21:18:21.337Z,101064.41
2023-05-04T21:20:48.055Z,101057.25
2023-05-04T21:23:14.575Z,101054.88
2023-05-04T21:25:41.061Z,101050.22
2023-05-04T21:28:07.561Z,101053.56
2023-05-04T21:30:34.006Z,101048.16
2023-05-04T21:33:01.008Z,101055.47
2023-05-04T21:35:30.885Z,101054.41
2023-05-04T21:37:58.941Z,101047.75
2023-05-04T21:40:27.336Z,101044.59
2023-05-04T21:42:53.896Z,101045.03
2023-05-04T21:45:20.490Z,101052.28
2023-05-04T21:47:47.034Z,101046.00
2023-05-04T21:50:13.575Z,101040.03
2023-05-04T21:52:40.010Z,101044.94
2023-05-04T21:55:06.969Z,101037.41
2023-05-04T21:57:33.506Z,101034.63
2023-05-04T22:00:00.026Z,101035.59
2023-05-04T22:02:26.559Z,101038.44
2023-05-04T22:04:53.030Z,101037.03
2023-05-04T22:07:19.516Z,101038.97
2023-05-04T22:09:45.973Z,101030.91
2023-05-04T22:12:12.929Z,101036.88
2023-05-04T22:14:41.608Z,101030.50
2023-05-04T22:17:08.962Z,101035.66
2023-05-04T22:19:35.452Z,101038.88
2023-05-04T22:22:01.959Z,101038.88
2023-05-04T22:24:28.473Z,101034.59
2023-05-04T22:26:54.944Z,101028.13
2023-05-04T22:29:21.436Z,101035.00
2023-05-04T22:31:47.924Z,101033.38
2023-05-04T22:34:14.351Z,101030.66
2023-05-04T22:36:40.883Z,101039.84
2023-05-04T22:39:07.717Z,101041.13
2023-05-04T22:41:34.149Z,101039.84
2023-05-04T22:44:01.131Z,101034.25
2023-05-04T22:46:27.579Z,101035.38
2023-05-04T22:48:54.058Z,101038.16
2023-05-04T22:51:20.734Z,101024.25
2023-05-04T22:53:47.245Z,101027.84
2023-05-04T22:56:13.704Z,101029.41
2023-05-04T22:58:40.181Z,101033.00
2023-05-04T23:01:10.489Z,101032.66
2023-05-04T23:03:40.534Z,101030.28
2023-05-04T23:06:08.647Z,101026.72
2023-05-04T23:08:35.094Z,101033.88
2023-05-04T23:11:01.529Z,101027.50
2023-05-04T23:13:28.452Z,101021.28
2023-05-04T23:15:55.080Z,101035.53
2023-05-04T23:18:21.566Z,101024.41
2023-05-04T23:20:48.044Z,101024.78
2023-05-04T23:23:14.535Z,101032.38
2023-05-04T23:25:41.286Z,101025.66
2023-05-04T23:28:07.721Z,101022.84
2023-05-04T23:30:34.194Z,101024.09
2023-05-04T23:33:00.858Z,101019.34
2023-05-04T23:35:28.128Z,101019.50
2023-05-04T23:37:54.655Z,101021.06
2023-05-04T23:40:21.589Z,101019.50
2023-05-04T23:42:51.026Z,101023.59
2023-05-04T23:45:17.594Z,101020.00
2023-05-04T23:47:44.140Z,101028.06
2023-05-04T23:50:11.570Z,101023.75
2023-05-04T23:52:38.129Z,101024.19
2023-05-04T23:55:05.147Z,101022.19
2023-05-04T23:57:31.600Z,101013.88
2023-05-04T23:59:58.057Z,101015.00
